Time;durP1;ratioP1;P1;durP2;ratioP2;P2;SDS_P1;SDS_P2;PMS_P1;PMS_P2;Temp;Humidity;BMP_temperature;BMP_pressure;BME280_temperature;BME280_humidity;BME280_pressure;Samples;Min_cycle;Max_cycle;Signal;HPM_P1;HPM_P2
2021/09/15 00:01:26;;;;;;;13.37;8.37;;;19.40;1.00;;;;;;5004501;28;20637;-76
2021/09/15 00:03:53;;;;;;;10.30;9.07;;;19.50;1.00;;;;;;5006994;28;20203;-76
2021/09/15 00:06:18;;;;;;;10.90;8.53;;;19.50;1.00;;;;;;5005808;28;20224;-76
2021/09/15 00:08:44;;;;;;;10.33;9.37;;;19.40;1.00;;;;;;5006683;28;20471;-76
2021/09/15 00:11:12;;;;;;;10.53;9.43;;;19.40;1.00;;;;;;4997204;28;20266;-76
2021/09/15 00:13:38;;;;;;;12.47;9.40;;;19.40;1.00;;;;;;5000748;28;20201;-77
2021/09/15 00:16:04;;;;;;;10.00;8.87;;;19.40;1.00;;;;;;4995899;28;23796;-76
2021/09/15 00:18:29;;;;;;;11.17;9.03;;;19.40;1.00;;;;;;4996535;28;20589;-76
2021/09/15 00:20:55;;;;;;;12.67;9.00;;;19.40;1.00;;;;;;5008126;28;20230;-76
2021/09/15 00:23:20;;;;;;;9.90;8.90;;;19.40;1.00;;;;;;5008986;28;22042;-76
2021/09/15 00:25:46;;;;;;;10.33;8.93;;;19.40;1.00;;;;;;5005405;28;20939;-76
2021/09/15 00:28:12;;;;;;;11.07;9.33;;;19.40;1.00;;;;;;4999390;28;20200;-76
2021/09/15 00:30:37;;;;;;;11.67;9.03;;;19.40;1.00;;;;;;5004449;28;20216;-76
2021/09/15 00:33:03;;;;;;;12.33;9.90;;;19.40;1.00;;;;;;5001749;28;20208;-76
2021/09/15 00:35:29;;;;;;;9.13;8.10;;;19.40;1.00;;;;;;5001638;28;20187;-76
2021/09/15 00:37:54;;;;;;;10.03;9.13;;;19.40;1.00;;;;;;5008086;28;20214;-76
2021/09/15 00:40:20;;;;;;;10.10;9.20;;;19.40;1.00;;;;;;5004977;28;20187;-76
2021/09/15 00:42:47;;;;;;;13.60;8.43;;;19.50;1.00;;;;;;5005529;28;20188;-77
2021/09/15 00:45:13;;;;;;;9.83;8.93;;;19.50;1.00;;;;;;5006731;28;21095;-76
2021/09/15 00:47:40;;;;;;;10.70;9.43;;;19.50;1.00;;;;;;5002102;28;20478;-76
2021/09/15 00:50:07;;;;;;;10.23;9.30;;;19.50;1.00;;;;;;5005124;28;20200;-76
2021/09/15 00:52:33;;;;;;;11.53;8.97;;;19.50;1.00;;;;;;5007082;28;20886;-76
2021/09/15 00:55:00;;;;;;;23.73;9.30;;;19.50;1.00;;;;;;5009455;28;20447;-76
2021/09/15 00:57:26;;;;;;;10.00;8.97;;;19.50;1.00;;;;;;5005898;28;20451;-76
2021/09/15 00:59:52;;;;;;;12.00;9.83;;;19.50;1.00;;;;;;5002291;28;20226;-76
2021/09/15 01:02:18;;;;;;;10.97;8.90;;;19.50;1.00;;;;;;5021856;28;20202;-77
2021/09/15 01:04:45;;;;;;;9.40;8.57;;;19.50;1.00;;;;;;5006942;28;24626;-76
2021/09/15 01:07:15;;;;;;;10.00;9.00;;;19.60;1.00;;;;;;5006649;28;20549;-76
2021/09/15 01:09:42;;;;;;;10.07;8.73;;;19.60;1.00;;;;;;5013452;28;20558;-76
2021/09/15 01:12:13;;;;;;;16.77;8.67;;;19.60;1.00;;;;;;5001986;28;20467;-77
2021/09/15 01:14:53;;;;;;;12.00;8.93;;;19.50;1.00;;;;;;5003534;28;20478;-76
2021/09/15 01:17:44;;;;;;;11.43;10.23;;;19.50;1.00;;;;;;5004109;28;20462;-76
2021/09/15 01:20:37;;;;;;;9.80;8.87;;;19.50;1.00;;;;;;4999625;28;20482;-76
2021/09/15 01:23:25;;;;;;;10.13;8.73;;;19.50;1.00;;;;;;5003650;28;20446;-76
2021/09/15 01:26:18;;;;;;;12.20;9.07;;;19.50;1.00;;;;;;5010639;28;20442;-76
2021/09/15 01:29:06;;;;;;;10.60;9.60;;;19.50;1.00;;;;;;5021753;28;20480;-76
2021/09/15 01:31:31;;;;;;;10.23;9.20;;;19.50;1.00;;;;;;5005476;28;20866;-76
2021/09/15 01:33:57;;;;;;;10.57;9.50;;;19.50;1.00;;;;;;5013974;28;20458;-76
2021/09/15 01:36:23;;;;;;;11.03;9.33;;;19.50;1.00;;;;;;5015568;28;20269;-76
2021/09/15 01:38:49;;;;;;;11.90;9.80;;;19.50;1.00;;;;;;5014655;28;20180;-76
2021/09/15 01:41:15;;;;;;;15.70;9.07;;;19.50;1.00;;;;;;5010142;28;21046;-76
2021/09/15 01:43:50;;;;;;;9.47;8.63;;;19.50;1.00;;;;;;5002716;28;20449;-76
2021/09/15 01:46:15;;;;;;;10.40;9.40;;;19.50;1.00;;;;;;5001279;28;20188;-75
2021/09/15 01:48:41;;;;;;;14.43;9.93;;;19.50;1.00;;;;;;5004100;28;20579;-76
2021/09/15 01:51:07;;;;;;;10.10;9.03;;;19.50;1.00;;;;;;5007654;28;20183;-76
2021/09/15 01:53:32;;;;;;;12.90;9.07;;;19.50;1.00;;;;;;5004044;28;21432;-76
2021/09/15 01:55:58;;;;;;;10.23;9.13;;;19.50;1.00;;;;;;5002086;28;20231;-76
2021/09/15 01:58:40;;;;;;;10.70;8.67;;;19.50;1.00;;;;;;5000689;28;20172;-76
2021/09/15 02:01:18;;;;;;;10.50;9.07;;;19.50;1.00;;;;;;4998458;28;20442;-76
2021/09/15 02:04:04;;;;;;;10.60;9.53;;;19.50;1.00;;;;;;5000690;28;20469;-76
2021/09/15 02:07:09;;;;;;;10.17;9.27;;;19.60;1.00;;;;;;5007053;28;21160;-76
2021/09/15 02:09:52;;;;;;;11.10;9.77;;;19.60;1.00;;;;;;5011735;28;20520;-76
2021/09/15 02:12:23;;;;;;;19.30;9.73;;;19.60;1.00;;;;;;5005854;28;20442;-76
2021/09/15 02:14:49;;;;;;;11.10;10.07;;;19.60;1.00;;;;;;4997385;28;20565;-76
2021/09/15 02:17:16;;;;;;;10.83;9.83;;;19.70;1.00;;;;;;5001674;28;20195;-76
2021/09/15 02:19:45;;;;;;;10.37;9.27;;;19.70;1.00;;;;;;5001334;28;20454;-75
2021/09/15 02:22:18;;;;;;;11.00;10.00;;;19.70;1.00;;;;;;5012937;28;20435;-76
2021/09/15 02:25:06;;;;;;;12.50;11.20;;;19.70;1.00;;;;;;5002184;28;20442;-75
2021/09/15 02:27:47;;;;;;;10.30;8.93;;;19.70;1.00;;;;;;5006946;28;20470;-76
2021/09/15 02:30:18;;;;;;;10.17;9.17;;;19.80;1.00;;;;;;4992302;28;20519;-77
2021/09/15 02:32:51;;;;;;;12.23;11.07;;;19.60;1.00;;;;;;4991065;28;20875;-76
2021/09/15 02:35:32;;;;;;;11.30;9.50;;;19.70;1.00;;;;;;4997378;28;20504;-76
2021/09/15 02:38:12;;;;;;;12.00;10.50;;;19.70;1.00;;;;;;4997105;28;20499;-76
2021/09/15 02:40:57;;;;;;;10.00;9.10;;;19.70;1.00;;;;;;4998679;28;20468;-76
2021/09/15 02:43:43;;;;;;;11.90;10.57;;;19.70;1.00;;;;;;5001704;28;20509;-76
2021/09/15 02:46:33;;;;;;;9.90;8.90;;;19.60;1.00;;;;;;4997614;28;20454;-76
2021/09/15 02:49:27;;;;;;;12.87;9.90;;;19.60;1.00;;;;;;4997607;28;20485;-76
2021/09/15 02:52:07;;;;;;;13.87;10.10;;;19.60;1.00;;;;;;4997949;28;21252;-76
2021/09/15 02:54:45;;;;;;;11.97;8.70;;;19.60;1.00;;;;;;4997948;28;20461;-76
2021/09/15 02:57:20;;;;;;;15.37;10.43;;;19.60;1.00;;;;;;5006709;28;20433;-76
2021/09/15 02:59:48;;;;;;;14.40;9.80;;;19.60;1.00;;;;;;4997046;28;20446;-76
2021/09/15 03:02:32;;;;;;;12.30;10.20;;;19.60;1.00;;;;;;4996546;28;20549;-76
2021/09/15 03:05:14;;;;;;;10.57;9.47;;;19.60;1.00;;;;;;5015703;28;20438;-76
2021/09/15 03:08:02;;;;;;;11.00;9.50;;;19.60;1.00;;;;;;5013729;28;20458;-76
2021/09/15 03:10:29;;;;;;;11.27;10.00;;;19.50;1.00;;;;;;5008059;28;20550;-76
2021/09/15 03:12:54;;;;;;;15.20;10.03;;;19.50;1.00;;;;;;5009000;28;20433;-76
2021/09/15 03:15:21;;;;;;;11.10;10.07;;;19.60;1.00;;;;;;4998211;28;20500;-76
2021/09/15 03:17:47;;;;;;;13.07;10.70;;;19.60;1.00;;;;;;4998192;28;20455;-76
2021/09/15 03:20:13;;;;;;;11.93;10.73;;;19.60;1.00;;;;;;4994806;28;20500;-77
2021/09/15 03:22:39;;;;;;;11.70;9.83;;;19.60;1.00;;;;;;4994768;28;20438;-77
2021/09/15 03:25:06;;;;;;;11.63;10.43;;;19.50;1.00;;;;;;5004449;28;20439;-76
2021/09/15 03:27:31;;;;;;;10.87;9.77;;;19.50;1.00;;;;;;5002137;28;20462;-76
2021/09/15 03:29:57;;;;;;;14.30;11.20;;;19.60;1.00;;;;;;5000409;28;20478;-76
2021/09/15 03:32:23;;;;;;;12.23;11.00;;;19.50;1.00;;;;;;5004197;28;20191;-76
2021/09/15 03:34:49;;;;;;;12.57;10.00;;;19.50;1.00;;;;;;5002327;28;20486;-76
2021/09/15 03:37:14;;;;;;;17.07;10.00;;;19.40;1.00;;;;;;5006867;28;20222;-76
2021/09/15 03:39:40;;;;;;;12.60;11.30;;;19.50;1.00;;;;;;5004756;28;20278;-76
2021/09/15 03:42:06;;;;;;;12.17;11.07;;;19.40;1.00;;;;;;5003034;28;20191;-76
2021/09/15 03:44:32;;;;;;;16.97;10.33;;;19.40;1.00;;;;;;4999559;28;20191;-74
2021/09/15 03:46:59;;;;;;;12.70;10.20;;;19.40;1.00;;;;;;4999812;28;20692;-75
2021/09/15 03:49:24;;;;;;;13.30;11.53;;;19.30;3.20;;;;;;4998192;28;20474;-75
2021/09/15 03:51:53;;;;;;;13.10;11.57;;;19.30;8.80;;;;;;5002069;28;20449;-75
2021/09/15 03:54:19;;;;;;;12.33;11.20;;;19.30;5.70;;;;;;5003648;28;20453;-75
2021/09/15 03:56:45;;;;;;;11.93;10.50;;;19.30;12.20;;;;;;5003003;28;20442;-75
2021/09/15 03:59:11;;;;;;;13.37;11.87;;;19.30;12.00;;;;;;5007275;28;20445;-75
2021/09/15 04:01:37;;;;;;;14.63;10.90;;;19.40;3.50;;;;;;5012089;28;20442;-75
2021/09/15 04:04:03;;;;;;;13.23;10.93;;;19.30;10.10;;;;;;5009727;28;20211;-74
2021/09/15 04:06:29;;;;;;;13.03;11.70;;;19.30;17.60;;;;;;5006563;28;20812;-75
2021/09/15 04:08:55;;;;;;;12.23;10.67;;;19.30;21.20;;;;;;5013777;28;20998;-75
2021/09/15 04:11:22;;;;;;;12.53;11.27;;;19.30;20.60;;;;;;5013769;28;20443;-75
2021/09/15 04:13:49;;;;;;;12.40;11.10;;;19.30;21.80;;;;;;5006106;28;21190;-75
2021/09/15 04:16:15;;;;;;;16.53;11.60;;;19.30;15.80;;;;;;5009215;28;20501;-75
2021/09/15 04:18:41;;;;;;;17.90;12.10;;;19.30;16.80;;;;;;5011767;28;20733;-75
2021/09/15 04:21:07;;;;;;;12.20;11.10;;;19.30;13.40;;;;;;5012344;28;20442;-77
2021/09/15 04:23:58;;;;;;;13.07;11.83;;;19.30;17.40;;;;;;5012439;28;20701;-76
2021/09/15 04:31:56;;;;;;;12.43;10.87;;;19.30;9.90;;;;;;5009141;28;20446;-77
2021/09/15 04:34:22;;;;;;;12.77;11.47;;;19.30;21.40;;;;;;5005183;28;20525;-77
2021/09/15 04:36:53;;;;;;;12.13;10.93;;;19.30;21.70;;;;;;5011981;28;20446;-76
2021/09/15 04:39:19;;;;;;;13.53;10.97;;;19.30;22.20;;;;;;4990262;28;20447;-77
2021/09/15 04:41:45;;;;;;;14.93;10.87;;;19.30;34.00;;;;;;5006353;28;20187;-76
2021/09/15 04:44:11;;;;;;;12.70;11.43;;;19.30;30.60;;;;;;5008232;28;20191;-76
2021/09/15 04:46:36;;;;;;;12.23;10.90;;;19.30;38.90;;;;;;5007283;28;20418;-76
2021/09/15 04:49:03;;;;;;;13.43;11.33;;;19.20;49.10;;;;;;5004615;28;20207;-76
2021/09/15 04:51:30;;;;;;;12.47;11.17;;;19.20;69.30;;;;;;5002117;28;20488;-76
2021/09/15 04:53:56;;;;;;;13.33;10.97;;;19.20;77.80;;;;;;5011111;28;20442;-76
2021/09/15 04:56:22;;;;;;;13.57;11.73;;;19.10;86.90;;;;;;5018647;28;20180;-75
2021/09/15 04:58:48;;;;;;;13.10;11.70;;;19.20;82.30;;;;;;5001451;28;20176;-76
2021/09/15 05:01:14;;;;;;;13.90;11.17;;;19.10;99.90;;;;;;5007763;28;20489;-76
2021/09/15 05:03:39;;;;;;;12.40;11.00;;;19.10;99.90;;;;;;5005487;28;20204;-76
2021/09/15 05:06:07;;;;;;;14.40;11.77;;;19.10;94.80;;;;;;5007206;28;20319;-76
2021/09/15 05:08:34;;;;;;;14.40;11.80;;;19.10;95.00;;;;;;5005908;28;20443;-77
2021/09/15 05:11:01;;;;;;;12.90;11.67;;;19.20;84.30;;;;;;5005401;28;20450;-77
2021/09/15 05:13:27;;;;;;;15.47;13.00;;;19.20;74.60;;;;;;5007872;28;20529;-76
2021/09/15 05:15:53;;;;;;;15.20;12.13;;;19.20;63.60;;;;;;5004258;28;20502;-76
2021/09/15 05:18:19;;;;;;;16.73;13.43;;;19.20;76.80;;;;;;5008712;28;21043;-77
2021/09/15 05:20:45;;;;;;;15.33;12.73;;;19.20;95.90;;;;;;5007527;28;20653;-77
2021/09/15 05:23:10;;;;;;;14.57;13.10;;;19.10;99.90;;;;;;5004069;28;20196;-77
2021/09/15 05:25:36;;;;;;;14.07;12.50;;;19.20;99.90;;;;;;5009459;28;20654;-76
2021/09/15 05:28:03;;;;;;;16.60;12.63;;;19.10;99.90;;;;;;5010119;28;20463;-78
2021/09/15 05:30:33;;;;;;;14.83;13.37;;;19.10;99.90;;;;;;5008734;28;20568;-76
2021/09/15 05:33:00;;;;;;;16.23;14.47;;;19.10;99.90;;;;;;5009429;28;20533;-76
2021/09/15 05:35:26;;;;;;;16.93;14.80;;;19.00;99.90;;;;;;5009172;28;20439;-76
2021/09/15 05:37:56;;;;;;;15.80;13.53;;;19.00;99.90;;;;;;5011207;28;21904;-76
2021/09/15 05:40:22;;;;;;;19.10;14.30;;;19.00;99.90;;;;;;5007596;28;20450;-76
2021/09/15 05:42:48;;;;;;;15.97;14.40;;;19.00;1.00;;;;;;5007199;28;20451;-76
2021/09/15 05:45:17;;;;;;;16.50;14.60;;;18.90;99.90;;;;;;5015073;28;20454;-76
2021/09/15 05:47:45;;;;;;;15.10;13.60;;;19.00;99.90;;;;;;5010631;28;20435;-76
2021/09/15 05:50:11;;;;;;;15.53;14.03;;;18.90;99.90;;;;;;5011541;28;20470;-76
2021/09/15 05:52:42;;;;;;;19.47;15.23;;;19.00;82.20;;;;;;5009426;28;20447;-76
2021/09/15 05:55:08;;;;;;;18.43;15.17;;;19.00;99.90;;;;;;5008299;28;21177;-76
2021/09/15 05:57:34;;;;;;;16.80;15.10;;;19.00;1.00;;;;;;5003018;28;20515;-77
2021/09/15 06:00:02;;;;;;;16.40;14.80;;;19.00;1.00;;;;;;5008555;28;20474;-76
2021/09/15 06:02:28;;;;;;;16.00;14.40;;;19.00;99.90;;;;;;5009257;28;21112;-76
2021/09/15 06:04:57;;;;;;;15.00;13.50;;;19.00;81.00;;;;;;5006880;28;20466;-76
2021/09/15 06:07:28;;;;;;;16.20;14.03;;;19.00;94.10;;;;;;5007951;28;20997;-76
2021/09/15 06:09:54;;;;;;;16.70;14.43;;;19.00;99.70;;;;;;5020108;28;20469;-76
2021/09/15 06:12:20;;;;;;;15.50;13.70;;;19.00;1.00;;;;;;5003682;28;20196;-76
2021/09/15 06:14:45;;;;;;;19.17;15.23;;;19.00;99.90;;;;;;5005317;28;20626;-75
2021/09/15 06:17:11;;;;;;;15.20;13.70;;;19.00;99.90;;;;;;5009406;28;20227;-75
2021/09/15 06:19:37;;;;;;;15.10;13.60;;;19.00;99.90;;;;;;5008438;28;20257;-76
2021/09/15 06:22:18;;;;;;;15.57;13.97;;;19.00;99.90;;;;;;5004531;28;20230;-75
2021/09/15 06:25:03;;;;;;;16.30;14.70;;;19.00;99.90;;;;;;5001405;28;20450;-75
2021/09/15 06:27:35;;;;;;;18.83;15.13;;;19.00;99.90;;;;;;5014135;28;20466;-76
2021/09/15 06:30:04;;;;;;;17.13;14.20;;;19.00;99.90;;;;;;5003801;28;20498;-75
2021/09/15 06:32:29;;;;;;;16.30;14.63;;;19.00;99.90;;;;;;5005210;28;20442;-75
2021/09/15 06:34:55;;;;;;;20.30;15.93;;;19.00;99.90;;;;;;5010985;28;20454;-76
2021/09/15 06:37:21;;;;;;;17.33;15.17;;;19.00;99.90;;;;;;5004352;28;20219;-76
2021/09/15 06:39:47;;;;;;;17.53;14.97;;;19.00;99.90;;;;;;5016445;28;20183;-75
2021/09/15 06:42:15;;;;;;;15.20;13.57;;;19.00;99.90;;;;;;5009812;28;20465;-75
2021/09/15 06:44:40;;;;;;;15.30;13.80;;;19.00;99.90;;;;;;5005467;28;20184;-75
2021/09/15 06:47:07;;;;;;;23.43;19.70;;;19.00;99.90;;;;;;5005708;28;20478;-75
2021/09/15 06:49:33;;;;;;;105.60;91.33;;;19.00;99.90;;;;;;5006469;28;20219;-75
2021/09/15 06:51:58;;;;;;;15.33;13.77;;;19.00;99.90;;;;;;5002211;28;20525;-75
2021/09/15 06:54:24;;;;;;;16.67;14.90;;;19.10;99.90;;;;;;5004671;28;20198;-76
2021/09/15 06:56:49;;;;;;;14.70;13.20;;;19.00;99.90;;;;;;5009025;28;20480;-75
2021/09/15 06:59:15;;;;;;;14.10;12.70;;;19.00;99.90;;;;;;5012021;28;22420;-75
2021/09/15 07:01:41;;;;;;;15.10;13.57;;;19.10;99.90;;;;;;5010035;28;20827;-75
2021/09/15 07:04:06;;;;;;;23.83;19.93;;;19.10;99.90;;;;;;5005997;28;20239;-75
2021/09/15 07:06:32;;;;;;;17.00;13.53;;;19.10;99.90;;;;;;5009315;28;20303;-75
2021/09/15 07:08:57;;;;;;;17.53;12.87;;;19.10;99.90;;;;;;5004393;28;20219;-75
2021/09/15 07:11:23;;;;;;;14.43;12.77;;;19.10;99.90;;;;;;5013804;28;20184;-75
2021/09/15 07:13:49;;;;;;;15.00;12.90;;;19.10;99.90;;;;;;5008072;28;20180;-75
2021/09/15 07:16:15;;;;;;;15.33;11.67;;;19.10;99.90;;;;;;5006541;28;20684;-75
2021/09/15 07:18:40;;;;;;;14.93;13.37;;;19.10;99.90;;;;;;5004388;28;20465;-76
2021/09/15 07:21:07;;;;;;;13.00;11.53;;;19.20;99.90;;;;;;5008607;28;20236;-76
2021/09/15 07:23:32;;;;;;;13.73;12.30;;;19.20;99.90;;;;;;5005418;28;20547;-76
2021/09/15 07:25:58;;;;;;;17.17;11.37;;;19.30;99.90;;;;;;5006568;28;20457;-75
2021/09/15 07:28:24;;;;;;;11.63;10.43;;;19.30;99.90;;;;;;5005482;28;20214;-75
2021/09/15 07:30:49;;;;;;;12.93;11.23;;;19.30;99.90;;;;;;4998783;28;20302;-75
2021/09/15 07:33:16;;;;;;;12.40;9.70;;;19.40;99.90;;;;;;5003961;28;20589;-75
2021/09/15 07:35:42;;;;;;;10.73;9.63;;;19.40;99.90;;;;;;5003400;28;20370;-75
2021/09/15 07:38:08;;;;;;;10.17;9.00;;;19.50;99.90;;;;;;5001841;28;20442;-75
2021/09/15 07:40:34;;;;;;;9.50;8.30;;;19.50;99.90;;;;;;5008589;28;20450;-76
2021/09/15 07:43:00;;;;;;;8.97;7.87;;;19.60;99.90;;;;;;5007325;28;20457;-75
2021/09/15 07:45:29;;;;;;;12.40;9.37;;;19.60;99.90;;;;;;5002221;28;21005;-75
2021/09/15 07:47:55;;;;;;;10.50;8.60;;;19.70;99.90;;;;;;5003203;28;20203;-75
2021/09/15 07:50:21;;;;;;;9.37;8.37;;;19.80;99.90;;;;;;5002480;28;20502;-76
2021/09/15 07:52:47;;;;;;;11.70;8.00;;;19.70;1.00;;;;;;5004597;28;20454;-75
2021/09/15 07:55:15;;;;;;;10.50;7.33;;;19.80;99.90;;;;;;5004310;28;20450;-76
2021/09/15 07:57:43;;;;;;;9.37;8.03;;;20.00;99.90;;;;;;5004315;28;20442;-76
2021/09/15 08:00:09;;;;;;;9.07;8.10;;;20.00;1.00;;;;;;5004143;28;20455;-76
2021/09/15 08:02:41;;;;;;;9.20;7.40;;;20.10;1.00;;;;;;4997061;28;20442;-75
2021/09/15 08:05:07;;;;;;;7.57;6.80;;;20.20;1.00;;;;;;5005603;28;20514;-75
2021/09/15 08:07:32;;;;;;;7.70;6.60;;;20.20;1.00;;;;;;5003336;28;20554;-75
2021/09/15 08:09:58;;;;;;;8.63;7.60;;;20.20;99.90;;;;;;5001729;28;20470;-75
2021/09/15 08:12:23;;;;;;;9.43;6.83;;;20.30;99.90;;;;;;5009285;28;20184;-75
2021/09/15 08:14:49;;;;;;;9.27;6.30;;;20.30;99.90;;;;;;5005638;28;20606;-76
2021/09/15 08:17:15;;;;;;;10.90;6.97;;;20.30;99.90;;;;;;5002793;28;20188;-76
2021/09/15 08:19:40;;;;;;;9.10;6.83;;;20.20;99.90;;;;;;4999014;28;20695;-75
2021/09/15 08:22:06;;;;;;;11.70;6.97;;;20.20;99.90;;;;;;4997020;28;20188;-75
2021/09/15 08:24:31;;;;;;;9.43;7.17;;;20.10;99.90;;;;;;5001095;28;20249;-75
2021/09/15 08:26:57;;;;;;;10.40;8.03;;;20.00;99.90;;;;;;5002469;28;20235;-75
2021/09/15 08:29:23;;;;;;;11.17;7.63;;;20.00;99.90;;;;;;5002755;28;20840;-75
2021/09/15 08:31:49;;;;;;;9.10;6.97;;;20.00;99.90;;;;;;5001729;28;20458;-75
2021/09/15 08:34:14;;;;;;;13.37;7.57;;;20.10;99.90;;;;;;5008063;28;20207;-75
2021/09/15 08:36:40;;;;;;;8.77;6.57;;;20.10;99.90;;;;;;5006648;28;20183;-76
2021/09/15 08:39:05;;;;;;;7.50;6.70;;;20.00;99.90;;;;;;5007908;28;20769;-75
2021/09/15 08:41:31;;;;;;;10.77;7.50;;;20.00;99.90;;;;;;5010485;28;20207;-76
2021/09/15 08:43:57;;;;;;;12.83;8.40;;;20.00;99.90;;;;;;5003189;28;20183;-76
2021/09/15 08:46:24;;;;;;;12.07;7.73;;;19.90;99.90;;;;;;5009823;28;20222;-75
2021/09/15 08:48:50;;;;;;;10.50;6.80;;;19.80;99.90;;;;;;5009756;28;20189;-75
2021/09/15 08:51:22;;;;;;;8.57;7.23;;;19.80;99.90;;;;;;5010417;28;20446;-75
2021/09/15 08:53:50;;;;;;;9.07;7.00;;;19.80;99.90;;;;;;5011925;28;20451;-75
2021/09/15 08:56:16;;;;;;;8.90;6.60;;;19.80;99.90;;;;;;5005363;28;20454;-76
2021/09/15 08:58:42;;;;;;;7.73;6.77;;;19.90;99.90;;;;;;5003744;28;20442;-76
2021/09/15 09:01:17;;;;;;;8.03;7.07;;;19.90;99.90;;;;;;5004737;28;20438;-75
2021/09/15 09:03:44;;;;;;;10.60;7.70;;;19.90;99.90;;;;;;5006501;28;20211;-76
2021/09/15 09:06:15;;;;;;;13.33;7.43;;;20.00;99.90;;;;;;5006143;28;20450;-76
2021/09/15 09:08:43;;;;;;;6.77;6.17;;;20.00;99.90;;;;;;5005649;28;20533;-75
2021/09/15 09:11:10;;;;;;;8.97;7.33;;;20.00;99.90;;;;;;5009120;28;20447;-75
2021/09/15 09:13:50;;;;;;;7.80;6.87;;;20.10;99.90;;;;;;5010140;28;20462;-75
2021/09/15 09:16:20;;;;;;;8.60;7.77;;;20.10;99.90;;;;;;5004478;28;20442;-76
2021/09/15 09:19:00;;;;;;;13.10;9.80;;;20.20;99.90;;;;;;5007120;28;20434;-76
2021/09/15 09:21:27;;;;;;;10.73;9.20;;;20.10;99.90;;;;;;5008342;28;27120;-75
2021/09/15 09:24:02;;;;;;;9.33;8.43;;;20.10;99.90;;;;;;5003927;28;21243;-76
2021/09/15 09:26:58;;;;;;;10.87;9.77;;;20.00;99.90;;;;;;5005924;28;20520;-76
2021/09/15 09:29:35;;;;;;;10.60;9.43;;;20.00;99.90;;;;;;5004858;28;20498;-76
2021/09/15 09:32:05;;;;;;;11.90;9.37;;;19.90;99.90;;;;;;5001788;28;21775;-75
2021/09/15 09:34:41;;;;;;;14.80;11.27;;;19.90;99.90;;;;;;5007990;28;20472;-76
2021/09/15 09:37:09;;;;;;;15.23;11.60;;;19.90;99.90;;;;;;5008785;28;20450;-75
2021/09/15 09:39:50;;;;;;;14.07;11.37;;;19.90;99.90;;;;;;5007001;28;20545;-76
2021/09/15 09:42:22;;;;;;;12.23;11.03;;;19.80;1.00;;;;;;5008308;28;20446;-76
2021/09/15 09:45:07;;;;;;;13.57;11.03;;;19.80;1.00;;;;;;5005059;28;20466;-76
2021/09/15 09:47:35;;;;;;;13.53;11.60;;;19.80;99.90;;;;;;5006809;28;20498;-75
2021/09/15 09:50:08;;;;;;;13.10;11.73;;;19.80;1.00;;;;;;5003312;28;20987;-76
2021/09/15 09:52:54;;;;;;;13.43;10.90;;;19.80;99.90;;;;;;5006976;28;20491;-76
2021/09/15 09:55:20;;;;;;;13.17;10.90;;;19.80;99.90;;;;;;5002033;28;20553;-76
2021/09/15 09:57:51;;;;;;;15.10;13.50;;;19.80;99.90;;;;;;5006794;28;20453;-76
2021/09/15 10:00:19;;;;;;;14.00;11.80;;;19.90;99.90;;;;;;5006374;28;23874;-76
2021/09/15 10:02:45;;;;;;;15.13;12.67;;;19.70;99.90;;;;;;5001252;28;20449;-76
2021/09/15 10:05:14;;;;;;;14.30;12.90;;;19.80;99.90;;;;;;5006817;28;20462;-76
2021/09/15 10:07:41;;;;;;;14.70;11.73;;;19.80;99.90;;;;;;5002424;28;20446;-76
2021/09/15 10:10:11;;;;;;;13.10;11.80;;;19.80;99.90;;;;;;5005349;28;20487;-76
2021/09/15 10:12:38;;;;;;;13.63;12.37;;;19.80;99.90;;;;;;5006123;28;20457;-76
2021/09/15 10:15:06;;;;;;;14.10;12.70;;;19.90;99.90;;;;;;5002531;28;20551;-76
2021/09/15 10:17:35;;;;;;;14.50;11.23;;;20.00;99.90;;;;;;5006070;28;20434;-77
2021/09/15 10:20:01;;;;;;;13.47;12.03;;;20.00;99.90;;;;;;5008781;28;20447;-76
2021/09/15 10:22:31;;;;;;;12.60;11.30;;;20.00;99.90;;;;;;5005628;28;20944;-75
2021/09/15 10:25:08;;;;;;;11.97;10.77;;;19.90;99.90;;;;;;5006414;28;20187;-75
2021/09/15 10:27:57;;;;;;;13.07;11.70;;;19.80;99.90;;;;;;5006296;28;20469;-75
2021/09/15 10:30:42;;;;;;;12.40;11.10;;;19.80;99.90;;;;;;5009118;28;20836;-75
2021/09/15 10:33:37;;;;;;;14.37;11.90;;;19.80;99.90;;;;;;5004584;28;21308;-75
2021/09/15 10:36:33;;;;;;;12.47;10.50;;;19.80;99.90;;;;;;5003361;28;20458;-76
2021/09/15 10:39:01;;;;;;;11.20;9.83;;;19.90;99.90;;;;;;5003741;28;20443;-75
2021/09/15 10:41:42;;;;;;;11.20;10.10;;;19.90;99.90;;;;;;5004315;28;20445;-75
2021/09/15 10:44:15;;;;;;;11.53;9.73;;;20.00;99.90;;;;;;5000799;28;20462;-75
2021/09/15 10:46:43;;;;;;;10.63;9.63;;;20.10;99.90;;;;;;5004839;28;20545;-76
2021/09/15 10:49:24;;;;;;;12.40;8.33;;;20.00;99.90;;;;;;5002736;28;20911;-75
2021/09/15 10:52:08;;;;;;;12.10;8.60;;;20.20;99.90;;;;;;5009915;28;20442;-76
2021/09/15 10:54:48;;;;;;;9.70;8.40;;;20.00;99.90;;;;;;5001824;28;20446;-75
2021/09/15 10:57:31;;;;;;;9.00;8.10;;;19.90;99.90;;;;;;5006788;28;20802;-75
2021/09/15 11:00:00;;;;;;;9.77;8.60;;;20.00;99.90;;;;;;5001112;28;20988;-75
2021/09/15 11:02:34;;;;;;;11.17;8.90;;;19.90;99.90;;;;;;4998984;28;20454;-75
2021/09/15 11:05:26;;;;;;;13.30;9.90;;;19.80;99.90;;;;;;5002923;28;20461;-75
2021/09/15 11:07:51;;;;;;;10.50;9.40;;;19.80;99.90;;;;;;5004183;28;20598;-75
2021/09/15 11:10:38;;;;;;;12.90;11.70;;;19.80;99.90;;;;;;5005607;28;20479;-76
2021/09/15 11:13:08;;;;;;;11.37;10.17;;;19.80;99.90;;;;;;5005799;28;20253;-75
2021/09/15 11:15:37;;;;;;;11.03;9.93;;;19.70;99.90;;;;;;4999586;28;20458;-75
2021/09/15 11:18:03;;;;;;;13.73;11.30;;;19.70;99.90;;;;;;5003658;28;20806;-75
2021/09/15 11:20:32;;;;;;;13.40;11.63;;;19.60;99.90;;;;;;4999875;28;20470;-76
2021/09/15 11:23:07;;;;;;;12.93;11.70;;;19.60;99.90;;;;;;5004963;28;20805;-75
2021/09/15 11:25:33;;;;;;;11.77;10.63;;;19.60;99.90;;;;;;5009498;28;20449;-75
2021/09/15 11:28:09;;;;;;;11.43;9.70;;;19.60;99.90;;;;;;5005602;28;20473;-75
2021/09/15 11:30:57;;;;;;;12.07;9.50;;;19.60;99.90;;;;;;5004582;28;20490;-75
2021/09/15 11:33:34;;;;;;;12.43;10.47;;;19.60;99.90;;;;;;5007553;28;20462;-75
2021/09/15 11:36:03;;;;;;;10.37;9.23;;;19.60;99.90;;;;;;5008572;28;20521;-76
2021/09/15 11:38:34;;;;;;;10.70;9.57;;;19.60;99.90;;;;;;5002596;28;20500;-75
2021/09/15 11:41:07;;;;;;;11.40;10.20;;;19.60;99.90;;;;;;5003243;28;21515;-75
2021/09/15 11:43:33;;;;;;;12.53;11.23;;;19.60;99.90;;;;;;5000122;28;20534;-76
2021/09/15 11:45:59;;;;;;;13.83;11.70;;;19.70;99.90;;;;;;5007137;28;20470;-75
2021/09/15 11:48:29;;;;;;;11.60;10.50;;;19.70;99.90;;;;;;5015204;28;20466;-75
2021/09/15 11:50:55;;;;;;;11.57;10.47;;;19.70;99.90;;;;;;5005504;28;20230;-75
2021/09/15 11:53:22;;;;;;;13.83;11.17;;;19.70;99.90;;;;;;5000064;28;20450;-76
2021/09/15 11:56:01;;;;;;;12.10;10.80;;;19.70;99.90;;;;;;5005576;28;20808;-76
2021/09/15 11:58:27;;;;;;;11.50;10.50;;;19.70;99.90;;;;;;5004864;28;20439;-75
2021/09/15 12:00:53;;;;;;;12.20;10.50;;;19.70;99.90;;;;;;4998057;28;20499;-75
2021/09/15 12:03:25;;;;;;;11.33;9.80;;;19.80;99.90;;;;;;5001379;28;20188;-75
2021/09/15 12:05:52;;;;;;;11.47;10.27;;;19.90;99.90;;;;;;4999320;28;20502;-76
2021/09/15 12:08:18;;;;;;;11.10;9.93;;;19.90;99.90;;;;;;5002947;28;20458;-75
2021/09/15 12:10:45;;;;;;;10.83;9.70;;;20.00;99.90;;;;;;5003710;28;21283;-75
2021/09/15 12:13:11;;;;;;;13.00;9.00;;;20.00;99.90;;;;;;5006776;28;20183;-75
2021/09/15 12:15:48;;;;;;;9.97;9.07;;;20.00;99.90;;;;;;5000550;28;20868;-75
2021/09/15 12:18:16;;;;;;;8.87;7.33;;;20.00;99.90;;;;;;4999522;28;20477;-75
2021/09/15 12:20:43;;;;;;;7.67;7.07;;;20.00;99.90;;;;;;5003278;28;20471;-75
2021/09/15 12:23:10;;;;;;;7.70;7.00;;;20.00;99.90;;;;;;5005428;28;20879;-75
2021/09/15 12:25:36;;;;;;;8.63;7.73;;;20.10;99.90;;;;;;5007888;28;20450;-76
2021/09/15 12:28:03;;;;;;;7.63;6.93;;;20.10;99.90;;;;;;5011317;28;20548;-75
2021/09/15 12:30:29;;;;;;;8.33;7.53;;;20.20;99.90;;;;;;5007350;28;20487;-75
2021/09/15 12:32:59;;;;;;;8.53;7.57;;;20.20;99.90;;;;;;5008438;28;20870;-75
2021/09/15 12:35:33;;;;;;;8.07;7.23;;;20.30;99.90;;;;;;5016831;28;20208;-75
2021/09/15 12:38:08;;;;;;;8.83;7.03;;;20.40;99.90;;;;;;5016696;28;20441;-75
2021/09/15 12:40:35;;;;;;;8.53;6.33;;;20.50;99.90;;;;;;5012604;28;20450;-75
2021/09/15 12:43:13;;;;;;;7.47;6.87;;;20.50;99.90;;;;;;5016690;28;20489;-75
2021/09/15 12:45:39;;;;;;;8.00;7.20;;;20.50;99.90;;;;;;5016070;28;20990;-75
2021/09/15 12:48:14;;;;;;;7.33;6.60;;;20.40;99.90;;;;;;5017855;28;20445;-75
2021/09/15 12:50:46;;;;;;;7.30;5.90;;;20.40;99.90;;;;;;5019280;28;20783;-75
2021/09/15 12:53:13;;;;;;;8.70;7.90;;;20.30;99.90;;;;;;5014761;28;21122;-75
2021/09/15 12:55:50;;;;;;;8.60;7.80;;;20.20;99.90;;;;;;5016603;28;21342;-75
2021/09/15 12:58:28;;;;;;;8.77;7.87;;;20.20;99.90;;;;;;5014856;28;21076;-75